Time;durP1;ratioP1;P1;durP2;ratioP2;P2;SDS_P1;SDS_P2;PMS_P1;PMS_P2;Temp;Humidity;BMP_temperature;BMP_pressure;BME280_temperature;BME280_humidity;BME280_pressure;Samples;Min_cycle;Max_cycle;Signal;HPM_P1;HPM_P2
2022/01/10 00:00:01;;;;;;;14.93;7.30;;;;;;;;;;5054553;28;20484;-69
2022/01/10 00:02:27;;;;;;;14.37;7.37;;;;;;;;;;5054185;28;20514;-69
2022/01/10 00:04:53;;;;;;;12.60;7.03;;;;;;;;;;5054382;28;20435;-69
2022/01/10 00:07:19;;;;;;;12.13;6.63;;;;;;;;;;5054389;28;20427;-72
2022/01/10 00:09:45;;;;;;;11.97;8.20;;;;;;;;;;5054449;28;20525;-69
2022/01/10 00:12:11;;;;;;;13.27;7.03;;;;;;;;;;5054173;28;20232;-72
2022/01/10 00:14:38;;;;;;;17.47;7.47;;;;;;;;;;5054187;28;20200;-71
2022/01/10 00:17:05;;;;;;;10.70;6.97;;;;;;;;;;5054002;28;20694;-71
2022/01/10 00:19:31;;;;;;;14.33;6.97;;;;;;;;;;5053864;28;20934;-73
2022/01/10 00:21:57;;;;;;;11.07;7.70;;;;;;;;;;5054298;28;20446;-73
2022/01/10 00:24:23;;;;;;;13.80;7.60;;;;;;;;;;5054019;28;20278;-73
2022/01/10 00:26:49;;;;;;;10.47;6.17;;;;;;;;;;5054095;28;20239;-74
2022/01/10 00:29:15;;;;;;;16.53;7.60;;;;;;;;;;5053696;28;20438;-73
2022/01/10 00:31:42;;;;;;;13.43;6.60;;;;;;;;;;5053976;28;20443;-72
2022/01/10 00:34:10;;;;;;;12.37;7.60;;;;;;;;;;5053827;28;20427;-70
2022/01/10 00:36:36;;;;;;;18.07;7.97;;;;;;;;;;5053769;28;20474;-71
2022/01/10 00:39:02;;;;;;;15.07;7.43;;;;;;;;;;5053281;28;20489;-71
2022/01/10 00:41:28;;;;;;;18.43;7.07;;;;;;;;;;5051870;28;20521;-71
2022/01/10 00:43:54;;;;;;;15.00;7.70;;;;;;;;;;5053638;28;20462;-72
2022/01/10 00:46:20;;;;;;;12.73;7.10;;;;;;;;;;5051549;28;20812;-67
2022/01/10 00:48:47;;;;;;;9.80;6.83;;;;;;;;;;5053562;28;20964;-69
2022/01/10 00:51:13;;;;;;;14.80;7.47;;;;;;;;;;5053391;28;20439;-68
2022/01/10 00:53:39;;;;;;;10.07;6.87;;;;;;;;;;5053379;28;20446;-66
2022/01/10 00:56:08;;;;;;;15.93;6.93;;;;;;;;;;5053520;28;20266;-67
2022/01/10 00:58:34;;;;;;;12.83;7.73;;;;;;;;;;5053533;28;20427;-67
2022/01/10 01:01:00;;;;;;;14.23;7.77;;;;;;;;;;5053179;28;20439;-64
2022/01/10 01:03:26;;;;;;;9.80;7.47;;;;;;;;;;5053474;28;20852;-66
2022/01/10 01:05:54;;;;;;;12.30;7.27;;;;;;;;;;5053418;28;20197;-66
2022/01/10 01:08:20;;;;;;;11.37;7.17;;;;;;;;;;5053339;28;20197;-66
2022/01/10 01:13:39;;;;;;;13.57;6.90;;;;;;;;;;5053113;28;20779;-68
2022/01/10 01:26:29;;;;;;;15.57;8.77;;;;;;;;;;5068123;28;20425;-69
2022/01/10 01:28:55;;;;;;;13.23;7.60;;;;;;;;;;5072671;28;20564;-69
2022/01/10 01:31:21;;;;;;;11.30;7.33;;;;;;;;;;5072641;28;20925;-69
2022/01/10 01:33:47;;;;;;;14.73;7.50;;;;;;;;;;5073023;28;20183;-69
2022/01/10 01:36:20;;;;;;;16.67;6.97;;;;;;;;;;5072501;28;20212;-69
2022/01/10 01:38:46;;;;;;;12.83;6.20;;;;;;;;;;5072722;28;20529;-70
2022/01/10 01:41:23;;;;;;;15.70;7.13;;;;;;;;;;5072552;28;20521;-69
2022/01/10 01:43:50;;;;;;;16.93;6.63;;;;;;;;;;5072636;28;20503;-69
2022/01/10 01:46:16;;;;;;;13.67;6.97;;;;;;;;;;5072619;28;20938;-69
2022/01/10 01:48:42;;;;;;;13.30;6.63;;;;;;;;;;5072554;28;20458;-69
2022/01/10 01:51:08;;;;;;;13.77;6.63;;;;;;;;;;5071426;28;20438;-69
2022/01/10 01:53:38;;;;;;;10.37;6.00;;;;;;;;;;5072568;28;20540;-69
2022/01/10 01:56:05;;;;;;;12.27;7.20;;;;;;;;;;5072503;28;20476;-70
2022/01/10 01:58:32;;;;;;;10.53;7.10;;;;;;;;;;5072483;28;20484;-70
2022/01/10 02:00:58;;;;;;;10.77;6.20;;;;;;;;;;5072377;28;20778;-69
2022/01/10 02:03:24;;;;;;;13.20;6.43;;;;;;;;;;5072028;28;20886;-69
2022/01/10 02:05:50;;;;;;;16.93;7.37;;;;;;;;;;5072172;28;20963;-70
2022/01/10 02:08:16;;;;;;;14.77;6.73;;;;;;;;;;5072322;28;20442;-69
2022/01/10 02:10:45;;;;;;;11.30;6.47;;;;;;;;;;5072097;28;20330;-70
2022/01/10 02:13:11;;;;;;;18.43;7.10;;;;;;;;;;5072144;28;20915;-69
2022/01/10 02:15:47;;;;;;;17.10;6.37;;;;;;;;;;5071866;28;20446;-70
2022/01/10 02:18:14;;;;;;;11.73;6.60;;;;;;;;;;5072131;28;20512;-69
2022/01/10 02:20:41;;;;;;;18.97;7.13;;;;;;;;;;5072397;28;20541;-69
2022/01/10 02:23:07;;;;;;;9.50;6.33;;;;;;;;;;5072212;28;20481;-70
2022/01/10 02:25:33;;;;;;;12.33;6.67;;;;;;;;;;5071960;28;20469;-70
2022/01/10 02:28:00;;;;;;;12.10;6.57;;;;;;;;;;5072019;28;21023;-70
2022/01/10 02:30:26;;;;;;;16.87;6.97;;;;;;;;;;5071910;28;20928;-70
2022/01/10 02:32:56;;;;;;;17.47;6.70;;;;;;;;;;5072145;28;20430;-70
2022/01/10 02:35:24;;;;;;;19.70;7.70;;;;;;;;;;5071870;28;20434;-69
2022/01/10 02:37:52;;;;;;;10.20;6.10;;;;;;;;;;5071971;28;20983;-69
2022/01/10 02:40:20;;;;;;;11.67;6.33;;;;;;;;;;5071840;28;20442;-68
2022/01/10 02:42:46;;;;;;;13.47;6.97;;;;;;;;;;5072053;28;20473;-69
2022/01/10 02:45:12;;;;;;;12.53;6.83;;;;;;;;;;5071665;28;20444;-69
2022/01/10 02:47:38;;;;;;;12.00;6.33;;;;;;;;;;5071863;28;20802;-69
2022/01/10 02:50:04;;;;;;;14.53;7.20;;;;;;;;;;5071968;28;20195;-70
2022/01/10 02:52:30;;;;;;;10.33;7.00;;;;;;;;;;5071654;28;20944;-68
2022/01/10 02:55:00;;;;;;;13.70;6.17;;;;;;;;;;5071721;28;20462;-68
2022/01/10 02:57:26;;;;;;;12.87;6.67;;;;;;;;;;5071655;28;20230;-69
2022/01/10 02:59:52;;;;;;;15.03;6.63;;;;;;;;;;5071639;28;20438;-69
2022/01/10 03:02:20;;;;;;;13.33;6.70;;;;;;;;;;5073424;28;20222;-69
2022/01/10 03:04:46;;;;;;;15.63;6.93;;;;;;;;;;5075737;28;20465;-69
2022/01/10 03:07:15;;;;;;;11.67;5.90;;;;;;;;;;5075602;28;20426;-70
2022/01/10 03:09:41;;;;;;;14.00;6.37;;;;;;;;;;5075726;28;20517;-69
2022/01/10 03:12:10;;;;;;;10.30;6.70;;;;;;;;;;5075402;28;20566;-69
2022/01/10 03:14:45;;;;;;;11.47;6.13;;;;;;;;;;5075376;28;20196;-70
2022/01/10 03:17:12;;;;;;;14.50;6.90;;;;;;;;;;5075243;28;20472;-69
2022/01/10 03:19:38;;;;;;;13.10;6.80;;;;;;;;;;5075333;28;20452;-69
2022/01/10 03:22:05;;;;;;;18.53;6.63;;;;;;;;;;5075005;28;20877;-69
2022/01/10 03:24:31;;;;;;;14.40;7.07;;;;;;;;;;5075306;28;20943;-69
2022/01/10 03:26:57;;;;;;;14.60;7.33;;;;;;;;;;5075287;28;20430;-69
2022/01/10 03:29:24;;;;;;;12.73;6.40;;;;;;;;;;5075202;28;20491;-69
2022/01/10 03:31:51;;;;;;;15.83;7.07;;;;;;;;;;5075223;28;20208;-69
2022/01/10 03:34:17;;;;;;;12.43;7.07;;;;;;;;;;5075165;28;20437;-69
2022/01/10 03:36:43;;;;;;;17.47;7.50;;;;;;;;;;5074822;28;20488;-70
2022/01/10 03:39:09;;;;;;;14.33;6.70;;;;;;;;;;5075079;28;20446;-70
2022/01/10 03:41:36;;;;;;;13.73;6.73;;;;;;;;;;5074901;28;20476;-70
2022/01/10 03:44:02;;;;;;;14.60;7.53;;;;;;;;;;5075022;28;20434;-70
2022/01/10 03:46:32;;;;;;;11.57;6.70;;;;;;;;;;5074710;28;20434;-70
2022/01/10 03:48:58;;;;;;;14.83;6.57;;;;;;;;;;5074847;28;20437;-69
2022/01/10 03:51:25;;;;;;;13.23;6.20;;;;;;;;;;5074752;28;20495;-69
2022/01/10 03:53:51;;;;;;;13.43;5.47;;;;;;;;;;5074826;28;20454;-70
2022/01/10 03:56:17;;;;;;;12.60;6.13;;;;;;;;;;5074724;28;20531;-69
2022/01/10 03:58:43;;;;;;;9.97;6.10;;;;;;;;;;5074865;28;20200;-70
2022/01/10 04:01:09;;;;;;;10.10;6.07;;;;;;;;;;5074273;28;20521;-68
2022/01/10 04:03:37;;;;;;;13.10;6.00;;;;;;;;;;5074517;28;20619;-69
2022/01/10 04:06:03;;;;;;;15.97;7.00;;;;;;;;;;5074592;28;20444;-69
2022/01/10 04:08:29;;;;;;;16.73;6.90;;;;;;;;;;5074503;28;20491;-69
2022/01/10 04:10:55;;;;;;;14.87;6.20;;;;;;;;;;5074344;28;20469;-68
2022/01/10 04:13:23;;;;;;;15.30;6.40;;;;;;;;;;5073407;28;20666;-69
2022/01/10 04:15:49;;;;;;;15.43;6.33;;;;;;;;;;5074452;28;20223;-70
2022/01/10 04:18:15;;;;;;;12.37;5.80;;;;;;;;;;5074455;28;20432;-70
2022/01/10 04:20:43;;;;;;;9.80;6.50;;;;;;;;;;5074345;28;20430;-69
2022/01/10 04:23:09;;;;;;;14.87;7.37;;;;;;;;;;5074268;28;20440;-70
2022/01/10 04:25:35;;;;;;;13.40;6.23;;;;;;;;;;5074110;28;20509;-69
2022/01/10 04:28:01;;;;;;;14.60;6.20;;;;;;;;;;5074324;28;20680;-69
2022/01/10 04:30:27;;;;;;;10.33;6.30;;;;;;;;;;5074020;28;20187;-70
2022/01/10 04:32:53;;;;;;;14.57;6.93;;;;;;;;;;5074165;28;20195;-69
2022/01/10 04:35:19;;;;;;;19.90;7.70;;;;;;;;;;5074125;28;20430;-68
2022/01/10 04:37:46;;;;;;;15.23;7.10;;;;;;;;;;5073993;28;20485;-69
2022/01/10 04:40:13;;;;;;;13.07;6.47;;;;;;;;;;5073988;28;20517;-69
2022/01/10 04:42:48;;;;;;;18.00;6.77;;;;;;;;;;5073704;28;20501;-69
2022/01/10 04:45:14;;;;;;;15.27;6.77;;;;;;;;;;5073883;28;20477;-69
2022/01/10 04:47:40;;;;;;;9.97;6.73;;;;;;;;;;5073789;28;20465;-69
2022/01/10 04:50:32;;;;;;;12.43;6.30;;;;;;;;;;5073701;28;20430;-69
2022/01/10 04:52:54;;;;;;;15.30;7.43;;;;;;;;;;5073554;28;20468;-69
2022/01/10 04:55:20;;;;;;;15.87;7.37;;;;;;;;;;5073673;28;20454;-69
2022/01/10 04:57:46;;;;;;;14.60;6.73;;;;;;;;;;5073434;28;21048;-68
2022/01/10 05:00:14;;;;;;;15.47;7.03;;;;;;;;;;5073503;28;20442;-69
2022/01/10 05:02:41;;;;;;;10.20;6.40;;;;;;;;;;5073422;28;20447;-69
2022/01/10 05:05:07;;;;;;;14.50;7.43;;;;;;;;;;5073437;28;20434;-69
2022/01/10 05:07:33;;;;;;;16.93;6.97;;;;;;;;;;5073427;28;20426;-69
2022/01/10 05:10:01;;;;;;;12.47;6.90;;;;;;;;;;5073392;28;20438;-68
2022/01/10 05:12:28;;;;;;;15.17;7.67;;;;;;;;;;5072889;28;20283;-69
2022/01/10 05:14:54;;;;;;;14.77;8.20;;;;;;;;;;5073195;28;20444;-68
2022/01/10 05:17:23;;;;;;;19.50;9.00;;;;;;;;;;5072770;28;20485;-69
2022/01/10 05:19:49;;;;;;;17.03;8.40;;;;;;;;;;5073110;28;20533;-69
2022/01/10 05:22:15;;;;;;;13.67;7.50;;;;;;;;;;5073114;28;20474;-69
2022/01/10 05:24:42;;;;;;;17.60;8.10;;;;;;;;;;5072712;28;20434;-69
2022/01/10 05:27:09;;;;;;;14.37;8.37;;;;;;;;;;5072936;28;20426;-69
2022/01/10 05:29:35;;;;;;;19.50;7.70;;;;;;;;;;5073142;28;20434;-69
2022/01/10 05:32:01;;;;;;;18.27;8.10;;;;;;;;;;5072853;28;20441;-69
2022/01/10 05:34:27;;;;;;;16.93;8.00;;;;;;;;;;5072873;28;20997;-69
2022/01/10 05:36:53;;;;;;;13.83;7.77;;;;;;;;;;5072567;28;20318;-69
2022/01/10 05:39:19;;;;;;;18.93;7.93;;;;;;;;;;5072758;28;20202;-69
2022/01/10 05:41:45;;;;;;;16.70;7.67;;;;;;;;;;5072675;28;20438;-69
2022/01/10 05:44:15;;;;;;;12.27;7.10;;;;;;;;;;5072671;28;20682;-70
2022/01/10 05:46:43;;;;;;;19.13;9.20;;;;;;;;;;5072455;28;20226;-70
2022/01/10 05:49:11;;;;;;;13.77;7.47;;;;;;;;;;5072456;28;20436;-69
2022/01/10 05:51:38;;;;;;;19.50;7.93;;;;;;;;;;5072488;28;20429;-69
2022/01/10 05:54:05;;;;;;;14.97;8.27;;;;;;;;;;5072277;28;20488;-70
2022/01/10 05:56:32;;;;;;;15.07;7.67;;;;;;;;;;5071690;28;20474;-69
2022/01/10 05:58:58;;;;;;;21.63;8.10;;;;;;;;;;5072081;28;21009;-69
2022/01/10 06:01:25;;;;;;;15.73;8.47;;;;;;;;;;5071969;28;20574;-68
2022/01/10 06:03:51;;;;;;;21.20;8.33;;;;;;;;;;5072029;28;20207;-69
2022/01/10 06:06:17;;;;;;;16.97;8.37;;;;;;;;;;5072232;28;20433;-69
2022/01/10 06:08:44;;;;;;;17.43;8.57;;;;;;;;;;5071890;28;20445;-69
2022/01/10 06:11:10;;;;;;;18.17;8.13;;;;;;;;;;5071804;28;20296;-68
2022/01/10 06:13:36;;;;;;;20.77;8.47;;;;;;;;;;5071605;28;20474;-67
2022/01/10 06:16:02;;;;;;;19.80;8.63;;;;;;;;;;5071363;28;20513;-69
2022/01/10 06:18:29;;;;;;;16.57;8.33;;;;;;;;;;5070206;28;20462;-69
2022/01/10 06:20:55;;;;;;;20.33;9.00;;;;;;;;;;5071610;28;20453;-69
2022/01/10 06:23:21;;;;;;;15.13;8.33;;;;;;;;;;5071923;28;20426;-70
2022/01/10 06:25:47;;;;;;;14.30;8.00;;;;;;;;;;5071849;28;20196;-70
2022/01/10 06:28:14;;;;;;;18.10;9.10;;;;;;;;;;5071593;28;20794;-70
2022/01/10 06:30:40;;;;;;;16.47;8.07;;;;;;;;;;5071410;28;20830;-69
2022/01/10 06:33:06;;;;;;;18.60;9.70;;;;;;;;;;5071740;28;20502;-70
2022/01/10 06:35:34;;;;;;;24.20;10.53;;;;;;;;;;5071669;28;20364;-69
2022/01/10 06:38:00;;;;;;;17.73;9.63;;;;;;;;;;5070963;28;20277;-70
2022/01/10 06:40:26;;;;;;;16.53;8.87;;;;;;;;;;5071581;28;20437;-69
2022/01/10 06:42:52;;;;;;;18.70;8.93;;;;;;;;;;5071421;28;20234;-69
2022/01/10 06:45:18;;;;;;;16.70;9.70;;;;;;;;;;5071597;28;20454;-69
2022/01/10 06:47:44;;;;;;;19.90;10.00;;;;;;;;;;5071610;28;20202;-70
2022/01/10 06:50:10;;;;;;;16.07;8.90;;;;;;;;;;5071616;28;20530;-69
2022/01/10 06:52:37;;;;;;;12.43;8.53;;;;;;;;;;5071446;28;20249;-70
2022/01/10 06:55:04;;;;;;;22.00;8.60;;;;;;;;;;5071398;28;20466;-69
2022/01/10 06:57:30;;;;;;;22.97;9.67;;;;;;;;;;5071348;28;20511;-70
2022/01/10 06:59:56;;;;;;;11.87;8.23;;;;;;;;;;5071373;28;20511;-70
2022/01/10 07:02:22;;;;;;;23.67;10.40;;;;;;;;;;5068045;28;20435;-69
2022/01/10 07:04:48;;;;;;;21.77;9.20;;;;;;;;;;5071428;28;20234;-69
2022/01/10 07:07:14;;;;;;;16.63;9.30;;;;;;;;;;5052402;28;20196;-69
2022/01/10 07:09:42;;;;;;;16.70;9.20;;;;;;;;;;5051389;28;20453;-70
2022/01/10 07:12:08;;;;;;;15.77;8.83;;;;;;;;;;5068518;28;20478;-71
2022/01/10 07:14:35;;;;;;;19.10;8.80;;;;;;;;;;5070815;28;20742;-69
2022/01/10 07:17:01;;;;;;;21.43;9.70;;;;;;;;;;5059354;28;20989;-69
2022/01/10 07:19:27;;;;;;;14.10;8.70;;;;;;;;;;5051224;28;20847;-70
2022/01/10 07:21:54;;;;;;;20.17;9.90;;;;;;;;;;5051172;28;20489;-68
2022/01/10 07:24:21;;;;;;;21.63;10.03;;;;;;;;;;5051276;28;20434;-69
2022/01/10 07:26:48;;;;;;;20.57;9.50;;;;;;;;;;5051194;28;20462;-68
2022/01/10 07:29:14;;;;;;;17.03;9.87;;;;;;;;;;5051266;28;20437;-69
2022/01/10 07:32:29;;;;;;;22.83;9.20;;;;;;;;;;5051170;28;20526;-70
2022/01/10 07:34:33;;;;;;;16.07;9.40;;;;;;;;;;5045585;28;20203;-71
2022/01/10 07:36:59;;;;;;;18.00;9.10;;;;;;;;;;5051271;28;20474;-69
2022/01/10 07:39:25;;;;;;;18.93;9.63;;;;;;;;;;5051189;28;20442;-69
2022/01/10 07:41:52;;;;;;;20.97;9.33;;;;;;;;;;5051016;28;20724;-69
2022/01/10 07:44:18;;;;;;;21.63;9.20;;;;;;;;;;5050870;28;20211;-71
2022/01/10 07:46:44;;;;;;;16.73;9.47;;;;;;;;;;5051018;28;20431;-71
2022/01/10 07:49:10;;;;;;;19.13;9.43;;;;;;;;;;5052613;28;20658;-71
2022/01/10 07:51:36;;;;;;;18.33;9.70;;;;;;;;;;5054373;28;20196;-72
2022/01/10 07:54:02;;;;;;;16.23;9.27;;;;;;;;;;5054358;28;20469;-72
2022/01/10 07:56:28;;;;;;;17.87;10.13;;;;;;;;;;5054160;28;20713;-71
2022/01/10 07:58:56;;;;;;;14.03;9.17;;;;;;;;;;5054295;28;20469;-72
2022/01/10 08:01:22;;;;;;;18.07;9.77;;;;;;;;;;5054202;28;20690;-71
2022/01/10 08:03:50;;;;;;;17.73;9.23;;;;;;;;;;5054427;28;20442;-71
2022/01/10 08:06:16;;;;;;;18.00;9.70;;;;;;;;;;5054384;28;20200;-71
2022/01/10 08:08:42;;;;;;;15.97;10.13;;;;;;;;;;5054237;28;20431;-71
2022/01/10 08:11:08;;;;;;;19.63;9.27;;;;;;;;;;5054280;28;20477;-71
2022/01/10 08:13:34;;;;;;;16.70;9.33;;;;;;;;;;5054229;28;20192;-71
2022/01/10 08:16:01;;;;;;;16.90;9.20;;;;;;;;;;5054074;28;20196;-71
2022/01/10 08:18:30;;;;;;;16.97;9.47;;;;;;;;;;5054037;28;20478;-70
2022/01/10 08:20:56;;;;;;;15.63;9.23;;;;;;;;;;5054019;28;20521;-71
2022/01/10 08:23:22;;;;;;;17.73;10.00;;;;;;;;;;5054001;28;20453;-70
2022/01/10 08:25:48;;;;;;;18.77;8.60;;;;;;;;;;5054036;28;20435;-69
2022/01/10 08:28:14;;;;;;;17.00;9.40;;;;;;;;;;5054067;28;20716;-70
2022/01/10 08:30:40;;;;;;;19.63;10.13;;;;;;;;;;5054005;28;20274;-71
2022/01/10 08:33:07;;;;;;;17.93;10.27;;;;;;;;;;5053869;28;20435;-71
2022/01/10 08:35:34;;;;;;;18.33;9.87;;;;;;;;;;5053855;28;20435;-72
2022/01/10 08:38:00;;;;;;;18.10;10.40;;;;;;;;;;5053702;28;20490;-72
2022/01/10 08:40:26;;;;;;;17.27;10.10;;;;;;;;;;5053890;28;20431;-70
2022/01/10 08:42:52;;;;;;;23.63;10.20;;;;;;;;;;5054284;28;20447;-68
2022/01/10 08:45:18;;;;;;;21.03;10.40;;;;;;;;;;5053803;28;20442;-72
2022/01/10 08:47:45;;;;;;;14.43;8.80;;;;;;;;;;5053729;28;20422;-66
2022/01/10 08:50:13;;;;;;;21.80;10.50;;;;;;;;;;5053664;28;20446;-64
2022/01/10 08:52:40;;;;;;;16.73;10.53;;;;;;;;;;5053231;28;20439;-66
2022/01/10 08:55:08;;;;;;;20.63;10.53;;;;;;;;;;5053520;28;20854;-76
2022/01/10 08:57:34;;;;;;;16.87;9.83;;;;;;;;;;5053421;28;20471;-72
2022/01/10 09:00:00;;;;;;;16.20;9.67;;;;;;;;;;5052953;28;20840;-75
2022/01/10 09:02:34;;;;;;;17.40;9.77;;;;;;;;;;5053587;28;20442;-74
2022/01/10 09:05:00;;;;;;;17.70;10.27;;;;;;;;;;5053517;28;20426;-75
2022/01/10 09:07:27;;;;;;;21.93;9.67;;;;;;;;;;5053245;28;20800;-75
2022/01/10 09:09:53;;;;;;;18.90;9.13;;;;;;;;;;5053234;28;20227;-76
2022/01/10 09:12:19;;;;;;;11.70;8.60;;;;;;;;;;5053302;28;20988;-75
2022/01/10 09:14:45;;;;;;;14.73;8.90;;;;;;;;;;5053229;28;20257;-75
2022/01/10 09:17:11;;;;;;;14.37;8.50;;;;;;;;;;5053228;28;20251;-77
2022/01/10 09:19:37;;;;;;;16.97;8.10;;;;;;;;;;5053056;28;20427;-77
2022/01/10 09:22:04;;;;;;;13.33;7.70;;;;;;;;;;5053101;28;20192;-77
2022/01/10 09:24:31;;;;;;;13.67;7.77;;;;;;;;;;5053146;28;20477;-76
2022/01/10 09:26:57;;;;;;;15.03;8.10;;;;;;;;;;5052840;28;20286;-76
2022/01/10 09:29:23;;;;;;;14.70;7.97;;;;;;;;;;5052737;28;20510;-76
2022/01/10 09:31:49;;;;;;;16.73;7.53;;;;;;;;;;5052671;28;20192;-77
2022/01/10 09:34:15;;;;;;;15.87;7.90;;;;;;;;;;5052676;28;20450;-77
2022/01/10 09:36:41;;;;;;;17.00;7.80;;;;;;;;;;5052557;28;20224;-74
2022/01/10 09:39:09;;;;;;;14.50;7.33;;;;;;;;;;5052531;28;20200;-77
2022/01/10 09:41:36;;;;;;;14.83;7.53;;;;;;;;;;5052626;28;20431;-74
2022/01/10 09:44:04;;;;;;;12.70;6.87;;;;;;;;;;5052539;28;20204;-77
2022/01/10 09:46:30;;;;;;;16.13;8.33;;;;;;;;;;5052619;28;20206;-76
2022/01/10 09:48:59;;;;;;;14.63;7.93;;;;;;;;;;5052380;28;20201;-78
2022/01/10 09:51:27;;;;;;;15.90;8.30;;;;;;;;;;5052848;28;20435;-75
2022/01/10 09:53:53;;;;;;;14.10;7.63;;;;;;;;;;5052705;28;20469;-74
2022/01/10 09:56:19;;;;;;;16.20;8.07;;;;;;;;;;5053236;28;20458;-75
2022/01/10 09:58:46;;;;;;;13.70;7.87;;;;;;;;;;5052434;28;20984;-66
2022/01/10 10:01:13;;;;;;;12.80;8.40;;;;;;;;;;5052259;28;20442;-71
2022/01/10 10:03:39;;;;;;;13.30;8.40;;;;;;;;;;5052206;28;20451;-70
2022/01/10 10:06:06;;;;;;;15.57;8.67;;;;;;;;;;5051958;28;20439;-68
2022/01/10 10:08:46;;;;;;;15.13;9.17;;;;;;;;;;5052079;28;20192;-72
2022/01/10 10:11:12;;;;;;;17.90;9.13;;;;;;;;;;5050965;28;20551;-68
2022/01/10 10:13:42;;;;;;;13.57;8.20;;;;;;;;;;5052107;28;20488;-73
2022/01/10 10:16:13;;;;;;;16.37;8.33;;;;;;;;;;5051989;28;20833;-69
2022/01/10 10:18:39;;;;;;;15.80;8.27;;;;;;;;;;5052043;28;20474;-70
2022/01/10 10:21:10;;;;;;;14.80;8.87;;;;;;;;;;5051889;28;20438;-66
2022/01/10 10:23:41;;;;;;;13.37;8.30;;;;;;;;;;5051966;28;20446;-65
2022/01/10 10:26:07;;;;;;;12.83;7.53;;;;;;;;;;5051766;28;20516;-66
2022/01/10 10:28:35;;;;;;;12.33;7.47;;;;;;;;;;5051859;28;20929;-70
2022/01/10 10:31:01;;;;;;;12.60;8.50;;;;;;;;;;5052349;28;20274;-78
2022/01/10 10:33:29;;;;;;;12.73;7.83;;;;;;;;;;5071717;28;21021;-79
2022/01/10 10:35:56;;;;;;;15.00;8.47;;;;;;;;;;5068188;28;20481;-71
2022/01/10 10:38:22;;;;;;;17.43;8.00;;;;;;;;;;5071595;28;20477;-74
2022/01/10 10:40:48;;;;;;;12.97;7.97;;;;;;;;;;5071757;28;20188;-72
2022/01/10 10:43:14;;;;;;;13.07;7.83;;;;;;;;;;5071895;28;20268;-68
2022/01/10 10:45:40;;;;;;;13.27;6.97;;;;;;;;;;5071704;28;20206;-62
2022/01/10 10:48:08;;;;;;;11.23;6.57;;;;;;;;;;5071623;28;20202;-62
2022/01/10 10:50:41;;;;;;;13.00;6.77;;;;;;;;;;5071665;28;20658;-62
2022/01/10 10:53:09;;;;;;;16.10;7.17;;;;;;;;;;5071444;28;20241;-63
2022/01/10 10:55:37;;;;;;;15.17;7.37;;;;;;;;;;5071695;28;20202;-62
2022/01/10 10:58:03;;;;;;;12.27;6.73;;;;;;;;;;5071652;28;20227;-58
2022/01/10 11:00:29;;;;;;;9.77;6.17;;;;;;;;;;5071025;28;20708;-59
2022/01/10 11:02:55;;;;;;;15.37;6.57;;;;;;;;;;5071465;28;20195;-58
2022/01/10 11:05:21;;;;;;;12.00;6.63;;;;;;;;;;5071484;28;20218;-58
2022/01/10 11:07:48;;;;;;;17.57;6.00;;;;;;;;;;5071512;28;20187;-59
2022/01/10 11:10:14;;;;;;;9.30;7.00;;;;;;;;;;5071559;28;20681;-60
2022/01/10 11:12:41;;;;;;;11.57;6.47;;;;;;;;;;5071272;28;20336;-59
2022/01/10 11:15:07;;;;;;;14.63;6.43;;;;;;;;;;5070819;28;20229;-58
2022/01/10 11:17:33;;;;;;;12.87;6.70;;;;;;;;;;5071457;28;20228;-58
2022/01/10 11:20:13;;;;;;;11.70;6.57;;;;;;;;;;5071384;28;20200;-58
2022/01/10 11:22:41;;;;;;;10.73;6.40;;;;;;;;;;5065029;28;20245;-59
2022/01/10 11:25:20;;;;;;;12.53;6.70;;;;;;;;;;5075018;28;20249;-58
2022/01/10 11:27:46;;;;;;;12.20;7.07;;;;;;;;;;5070553;28;20205;-59
2022/01/10 11:30:29;;;;;;;13.97;6.23;;;;;;;;;;5071949;28;20220;-60
2022/01/10 11:32:57;;;;;;;13.57;7.00;;;;;;;;;;5057298;28;20196;-59
2022/01/10 11:35:26;;;;;;;12.57;7.17;;;;;;;;;;5054873;28;20204;-60
2022/01/10 11:37:52;;;;;;;13.40;6.57;;;;;;;;;;5054525;28;20228;-60
2022/01/10 11:40:20;;;;;;;11.27;6.50;;;;;;;;;;5054627;28;20291;-60
2022/01/10 11:42:46;;;;;;;15.07;7.00;;;;;;;;;;5054929;28;20204;-59
2022/01/10 11:45:13;;;;;;;16.60;6.43;;;;;;;;;;5054184;28;20237;-59
2022/01/10 11:47:54;;;;;;;11.73;6.63;;;;;;;;;;5054557;28;20288;-60
2022/01/10 11:50:27;;;;;;;10.90;6.13;;;;;;;;;;5054216;28;20203;-59
2022/01/10 11:52:54;;;;;;;13.90;6.63;;;;;;;;;;5054244;28;20196;-60
2022/01/10 11:55:29;;;;;;;13.87;7.00;;;;;;;;;;5054429;28;20552;-60
2022/01/10 11:58:01;;;;;;;10.30;6.37;;;;;;;;;;5054402;28;20224;-60
2022/01/10 12:00:34;;;;;;;10.87;6.10;;;;;;;;;;5054431;28;20219;-59
2022/01/10 12:03:00;;;;;;;9.83;6.03;;;;;;;;;;5054310;28;20202;-60
2022/01/10 12:05:26;;;;;;;13.63;6.13;;;;;;;;;;5054236;28;20282;-59
2022/01/10 12:07:52;;;;;;;12.10;5.93;;;;;;;;;;5054233;28;20199;-61
2022/01/10 12:10:18;;;;;;;11.80;6.10;;;;;;;;;;5053809;28;20213;-61
2022/01/10 12:12:50;;;;;;;14.80;6.67;;;;;;;;;;5053979;28;20267;-60
2022/01/10 12:15:16;;;;;;;13.40;6.50;;;;;;;;;;5053821;28;20308;-60
2022/01/10 12:17:42;;;;;;;16.20;6.27;;;;;;;;;;5053828;28;20228;-60
2022/01/10 12:20:08;;;;;;;11.03;5.63;;;;;;;;;;5053674;28;20652;-60
2022/01/10 12:22:34;;;;;;;14.33;6.23;;;;;;;;;;5053845;28;20200;-61
2022/01/10 12:25:01;;;;;;;12.87;6.60;;;;;;;;;;5053939;28;20615;-61
2022/01/10 12:27:27;;;;;;;15.00;6.83;;;;;;;;;;5053603;28;20217;-61
2022/01/10 12:29:55;;;;;;;13.67;7.07;;;;;;;;;;5053573;28;20203;-61
2022/01/10 12:32:21;;;;;;;15.87;7.23;;;;;;;;;;5053551;28;20291;-61
2022/01/10 12:34:47;;;;;;;14.93;6.97;;;;;;;;;;5051074;28;20272;-62
2022/01/10 12:37:13;;;;;;;14.70;6.77;;;;;;;;;;5051634;28;20220;-61
2022/01/10 12:39:42;;;;;;;15.23;7.13;;;;;;;;;;5063944;28;20227;-60
2022/01/10 12:42:08;;;;;;;14.03;6.83;;;;;;;;;;5073687;28;20564;-61
2022/01/10 12:44:34;;;;;;;14.30;7.23;;;;;;;;;;5073569;28;20279;-61
2022/01/10 12:47:01;;;;;;;12.83;6.63;;;;;;;;;;5073685;28;20275;-61
2022/01/10 12:49:27;;;;;;;21.57;6.70;;;;;;;;;;5073601;28;20211;-61
2022/01/10 12:51:54;;;;;;;13.07;7.13;;;;;;;;;;5062327;28;20192;-66
2022/01/10 12:54:21;;;;;;;15.23;6.63;;;;;;;;;;5053214;28;20229;-63
2022/01/10 12:56:47;;;;;;;20.73;7.73;;;;;;;;;;5053563;28;20211;-65
2022/01/10 12:59:14;;;;;;;12.70;7.13;;;;;;;;;;5053059;28;20250;-69
2022/01/10 13:01:40;;;;;;;15.57;6.77;;;;;;;;;;5053470;28;20699;-65
2022/01/10 13:04:07;;;;;;;13.60;6.47;;;;;;;;;;5053161;28;20250;-69
2022/01/10 13:06:37;;;;;;;13.33;6.97;;;;;;;;;;5053331;28;20207;-62
2022/01/10 13:09:04;;;;;;;15.00;6.57;;;;;;;;;;5053287;28;20258;-60
2022/01/10 13:11:41;;;;;;;14.90;6.80;;;;;;;;;;5053011;28;20310;-60
2022/01/10 13:14:08;;;;;;;15.63;7.20;;;;;;;;;;5052931;28;20281;-60
2022/01/10 13:16:34;;;;;;;14.87;7.93;;;;;;;;;;5053131;28;20603;-61
2022/01/10 13:19:01;;;;;;;13.90;7.70;;;;;;;;;;5052929;28;20223;-62
2022/01/10 13:21:35;;;;;;;15.27;8.37;;;;;;;;;;5053126;28;20197;-62
2022/01/10 13:24:09;;;;;;;15.53;7.50;;;;;;;;;;5053052;28;20239;-61
2022/01/10 13:26:36;;;;;;;13.93;7.67;;;;;;;;;;5051192;28;20196;-61
2022/01/10 13:29:04;;;;;;;15.20;7.03;;;;;;;;;;5053053;28;20275;-61
2022/01/10 13:31:37;;;;;;;17.53;8.40;;;;;;;;;;5052995;28;20192;-61
2022/01/10 13:34:03;;;;;;;18.60;8.10;;;;;;;;;;5052934;28;20211;-61
2022/01/10 13:36:42;;;;;;;16.27;7.97;;;;;;;;;;5052829;28;20196;-62
2022/01/10 13:39:16;;;;;;;16.57;8.43;;;;;;;;;;5052722;28;20223;-61
2022/01/10 13:41:56;;;;;;;16.43;8.47;;;;;;;;;;5052791;28;20208;-62
2022/01/10 13:44:22;;;;;;;17.60;8.10;;;;;;;;;;5052910;28;20266;-61
2022/01/10 13:46:48;;;;;;;15.50;8.50;;;;;;;;;;5052300;28;20243;-62
2022/01/10 13:49:25;;;;;;;19.13;8.43;;;;;;;;;;5052694;28;20276;-61
2022/01/10 13:52:07;;;;;;;14.83;6.93;;;;;;;;;;5052528;28;20199;-62
2022/01/10 13:54:33;;;;;;;16.67;8.30;;;;;;;;;;5052491;28;20303;-59
2022/01/10 13:57:13;;;;;;;16.00;8.13;;;;;;;;;;5052233;28;20343;-60
2022/01/10 13:59:39;;;;;;;18.03;8.60;;;;;;;;;;5052523;28;20252;-61
2022/01/10 14:02:05;;;;;;;16.13;9.13;;;;;;;;;;5052387;28;20200;-61
2022/01/10 14:04:32;;;;;;;18.60;8.77;;;;;;;;;;5052580;28;20211;-61
2022/01/10 14:06:58;;;;;;;16.33;8.43;;;;;;;;;;5052346;28;20192;-61
2022/01/10 14:09:27;;;;;;;14.23;7.97;;;;;;;;;;5051962;28;20724;-61
2022/01/10 14:11:54;;;;;;;15.83;8.27;;;;;;;;;;5051931;28;20244;-62
2022/01/10 14:14:20;;;;;;;14.67;9.00;;;;;;;;;;5052333;28;20200;-60
2022/01/10 14:16:49;;;;;;;18.90;8.77;;;;;;;;;;5051937;28;20246;-61
2022/01/10 14:19:16;;;;;;;15.80;8.97;;;;;;;;;;5051915;28;20611;-61
2022/01/10 14:21:43;;;;;;;12.83;8.67;;;;;;;;;;5052127;28;20201;-61
2022/01/10 14:24:09;;;;;;;16.13;8.73;;;;;;;;;;5052303;28;20279;-62
2022/01/10 14:26:36;;;;;;;16.90;8.80;;;;;;;;;;5052206;28;20283;-61
2022/01/10 14:29:03;;;;;;;17.53;9.50;;;;;;;;;;5051898;28;20212;-60
2022/01/10 14:31:32;;;;;;;19.53;9.27;;;;;;;;;;5052066;28;20271;-60
2022/01/10 14:33:58;;;;;;;17.30;9.43;;;;;;;;;;5048499;28;20226;-61
2022/01/10 14:36:24;;;;;;;18.87;9.77;;;;;;;;;;5049817;28;20218;-61
2022/01/10 14:38:50;;;;;;;17.67;8.10;;;;;;;;;;5049785;28;20523;-61
2022/01/10 14:41:17;;;;;;;17.37;10.00;;;;;;;;;;5050034;28;20200;-61